sensor_id;sensor_type;location;lat;lon;timestamp;pressure;altitude;pressure_sealevel;temperature;humidity
6020;BME280;3038;51.122;6.840;2023-11-19T00:01:19;100653.59;;;10.70;100.00
6020;BME280;3038;51.122;6.840;2023-11-19T00:03:44;100658.44;;;10.75;100.00
6020;BME280;3038;51.122;6.840;2023-11-19T00:06:10;100643.66;;;10.80;100.00
6020;BME280;3038;51.122;6.840;2023-11-19T00:08:36;100646.31;;;10.80;100.00
6020;BME280;3038;51.122;6.840;2023-11-19T00:11:01;100631.72;;;10.85;100.00
6020;BME280;3038;51.122;6.840;2023-11-19T00:13:30;100618.28;;;10.86;100.00
6020;BME280;3038;51.122;6.840;2023-11-19T00:15:55;100617.13;;;10.89;100.00
6020;BME280;3038;51.122;6.840;2023-11-19T00:18:24;100642.19;;;10.94;100.00
6020;BME280;3038;51.122;6.840;2023-11-19T00:20:51;100647.69;;;11.01;100.00
6020;BME280;3038;51.122;6.840;2023-11-19T00:23:17;100640.03;;;11.06;100.00
6020;BME280;3038;51.122;6.840;2023-11-19T00:25:42;100656.81;;;11.06;100.00
6020;BME280;3038;51.122;6.840;2023-11-19T00:28:08;100658.00;;;11.12;100.00
6020;BME280;3038;51.122;6.840;2023-11-19T00:30:33;100644.06;;;11.18;100.00
6020;BME280;3038;51.122;6.840;2023-11-19T00:32:58;100647.34;;;11.20;100.00
6020;BME280;3038;51.122;6.840;2023-11-19T00:35:24;100643.38;;;11.24;100.00
6020;BME280;3038;51.122;6.840;2023-11-19T00:37:51;100647.06;;;11.31;100.00
6020;BME280;3038;51.122;6.840;2023-11-19T00:40:18;100637.06;;;11.33;100.00
6020;BME280;3038;51.122;6.840;2023-11-19T00:42:46;100637.41;;;11.30;100.00
6020;BME280;3038;51.122;6.840;2023-11-19T00:45:12;100632.75;;;11.32;100.00
6020;BME280;3038;51.122;6.840;2023-11-19T00:47:38;100635.56;;;11.39;100.00
6020;BME280;3038;51.122;6.840;2023-11-19T00:50:04;100648.69;;;11.41;100.00
6020;BME280;3038;51.122;6.840;2023-11-19T00:52:29;100641.03;;;11.46;100.00
6020;BME280;3038;51.122;6.840;2023-11-19T00:54:54;100643.88;;;11.52;100.00
6020;BME280;3038;51.122;6.840;2023-11-19T00:57:20;100644.53;;;11.54;100.00
6020;BME280;3038;51.122;6.840;2023-11-19T00:59:45;100623.06;;;11.64;100.00
6020;BME280;3038;51.122;6.840;2023-11-19T01:02:12;100630.72;;;11.83;100.00
6020;BME280;3038;51.122;6.840;2023-11-19T01:04:39;100632.66;;;12.06;100.00
6020;BME280;3038;51.122;6.840;2023-11-19T01:07:05;100623.44;;;12.25;100.00
6020;BME280;3038;51.122;6.840;2023-11-19T01:09:41;100621.88;;;12.39;100.00
6020;BME280;3038;51.122;6.840;2023-11-19T01:12:07;100620.13;;;12.54;100.00
6020;BME280;3038;51.122;6.840;2023-11-19T01:14:32;100619.91;;;12.64;100.00
6020;BME280;3038;51.122;6.840;2023-11-19T01:16:58;100625.72;;;12.67;100.00
6020;BME280;3038;51.122;6.840;2023-11-19T01:19:23;100618.84;;;12.73;100.00
6020;BME280;3038;51.122;6.840;2023-11-19T01:21:50;100618.63;;;12.82;100.00
6020;BME280;3038;51.122;6.840;2023-11-19T01:24:15;100620.38;;;12.90;100.00
6020;BME280;3038;51.122;6.840;2023-11-19T01:26:41;100613.88;;;12.93;100.00
6020;BME280;3038;51.122;6.840;2023-11-19T01:29:14;100620.53;;;12.97;100.00
6020;BME280;3038;51.122;6.840;2023-11-19T01:31:43;100609.84;;;12.97;100.00
6020;BME280;3038;51.122;6.840;2023-11-19T01:34:10;100615.19;;;12.97;100.00
6020;BME280;3038;51.122;6.840;2023-11-19T01:36:36;100620.16;;;13.00;100.00
6020;BME280;3038;51.122;6.840;2023-11-19T01:39:02;100622.81;;;13.00;100.00
6020;BME280;3038;51.122;6.840;2023-11-19T01:41:29;100622.81;;;13.00;100.00
6020;BME280;3038;51.122;6.840;2023-11-19T01:43:54;100622.66;;;13.01;100.00
6020;BME280;3038;51.122;6.840;2023-11-19T01:46:20;100610.78;;;13.04;100.00
6020;BME280;3038;51.122;6.840;2023-11-19T01:48:46;100610.78;;;13.04;100.00
6020;BME280;3038;51.122;6.840;2023-11-19T01:51:16;100606.47;;;13.03;100.00
6020;BME280;3038;51.122;6.840;2023-11-19T01:53:44;100605.47;;;13.04;100.00
6020;BME280;3038;51.122;6.840;2023-11-19T01:56:17;100605.94;;;13.07;100.00
6020;BME280;3038;51.122;6.840;2023-11-19T01:58:44;100601.78;;;13.05;100.00
6020;BME280;3038;51.122;6.840;2023-11-19T02:01:13;100609.78;;;13.05;100.00
6020;BME280;3038;51.122;6.840;2023-11-19T02:03:38;100602.16;;;13.02;100.00
6020;BME280;3038;51.122;6.840;2023-11-19T02:06:04;100601.78;;;13.05;100.00
6020;BME280;3038;51.122;6.840;2023-11-19T02:08:30;100605.94;;;13.07;100.00
6020;BME280;3038;51.122;6.840;2023-11-19T02:10:55;100607.72;;;13.15;100.00
6020;BME280;3038;51.122;6.840;2023-11-19T02:13:25;100590.53;;;13.18;100.00
6020;BME280;3038;51.122;6.840;2023-11-19T02:15:51;100590.84;;;13.23;100.00
6020;BME280;3038;51.122;6.840;2023-11-19T02:18:17;100590.84;;;13.23;100.00
6020;BME280;3038;51.122;6.840;2023-11-19T02:20:43;100582.50;;;13.26;100.00
6020;BME280;3038;51.122;6.840;2023-11-19T02:23:08;100582.31;;;13.27;100.00
6020;BME280;3038;51.122;6.840;2023-11-19T02:25:35;100562.47;;;13.30;100.00
6020;BME280;3038;51.122;6.840;2023-11-19T02:28:01;100567.25;;;13.34;100.00
6020;BME280;3038;51.122;6.840;2023-11-19T02:30:27;100551.06;;;13.36;100.00
6020;BME280;3038;51.122;6.840;2023-11-19T02:32:57;100552.53;;;13.38;100.00
6020;BME280;3038;51.122;6.840;2023-11-19T02:35:26;100548.22;;;13.37;100.00
6020;BME280;3038;51.122;6.840;2023-11-19T02:37:52;100547.72;;;13.34;100.00
6020;BME280;3038;51.122;6.840;2023-11-19T02:40:20;100544.44;;;13.32;100.00
6020;BME280;3038;51.122;6.840;2023-11-19T02:42:47;100534.78;;;13.31;100.00
6020;BME280;3038;51.122;6.840;2023-11-19T02:45:14;100543.97;;;13.28;100.00
6020;BME280;3038;51.122;6.840;2023-11-19T02:47:43;100543.13;;;13.28;100.00
6020;BME280;3038;51.122;6.840;2023-11-19T02:50:12;100558.66;;;13.24;100.00
6020;BME280;3038;51.122;6.840;2023-11-19T02:52:44;100550.66;;;13.24;100.00
6020;BME280;3038;51.122;6.840;2023-11-19T02:55:14;100549.13;;;13.30;100.00
6020;BME280;3038;51.122;6.840;2023-11-19T02:57:39;100542.59;;;13.32;100.00
6020;BME280;3038;51.122;6.840;2023-11-19T03:00:20;100547.38;;;13.37;100.00
6020;BME280;3038;51.122;6.840;2023-11-19T03:03:01;100554.84;;;13.42;100.00
6020;BME280;3038;51.122;6.840;2023-11-19T03:05:45;100557.97;;;13.45;100.00
6020;BME280;3038;51.122;6.840;2023-11-19T03:08:12;100553.28;;;13.47;100.00
6020;BME280;3038;51.122;6.840;2023-11-19T03:10:40;100545.47;;;13.46;100.00
6020;BME280;3038;51.122;6.840;2023-11-19T03:13:05;100534.31;;;13.42;100.00
6020;BME280;3038;51.122;6.840;2023-11-19T03:15:31;100537.53;;;13.37;100.00
6020;BME280;3038;51.122;6.840;2023-11-19T03:17:56;100532.22;;;13.37;100.00
6020;BME280;3038;51.122;6.840;2023-11-19T03:20:21;100539.19;;;13.38;100.00
6020;BME280;3038;51.122;6.840;2023-11-19T03:22:48;100531.47;;;13.44;100.00
6020;BME280;3038;51.122;6.840;2023-11-19T03:25:16;100512.81;;;13.44;100.00
6020;BME280;3038;51.122;6.840;2023-11-19T03:27:41;100524.13;;;13.46;100.00
6020;BME280;3038;51.122;6.840;2023-11-19T03:30:09;100527.63;;;13.46;100.00
6020;BME280;3038;51.122;6.840;2023-11-19T03:32:37;100529.06;;;13.49;100.00
6020;BME280;3038;51.122;6.840;2023-11-19T03:35:04;100524.41;;;13.51;100.00
6020;BME280;3038;51.122;6.840;2023-11-19T03:37:32;100522.38;;;13.53;100.00
6020;BME280;3038;51.122;6.840;2023-11-19T03:40:06;100525.69;;;13.55;100.00
6020;BME280;3038;51.122;6.840;2023-11-19T03:42:31;100535.34;;;13.56;100.00
6020;BME280;3038;51.122;6.840;2023-11-19T03:44:57;100537.00;;;13.57;100.00
6020;BME280;3038;51.122;6.840;2023-11-19T03:47:22;100537.00;;;13.57;100.00
6020;BME280;3038;51.122;6.840;2023-11-19T03:49:49;100528.38;;;13.55;100.00
6020;BME280;3038;51.122;6.840;2023-11-19T03:52:14;100533.69;;;13.55;100.00
6020;BME280;3038;51.122;6.840;2023-11-19T03:54:40;100528.38;;;13.55;100.00
6020;BME280;3038;51.122;6.840;2023-11-19T03:57:05;100534.06;;;13.52;100.00
6020;BME280;3038;51.122;6.840;2023-11-19T03:59:30;100539.13;;;13.47;100.00
6020;BME280;3038;51.122;6.840;2023-11-19T04:01:58;100545.81;;;13.43;100.00
6020;BME280;3038;51.122;6.840;2023-11-19T04:04:26;100550.81;;;13.46;100.00
6020;BME280;3038;51.122;6.840;2023-11-19T04:06:53;100544.91;;;13.50;100.00
6020;BME280;3038;51.122;6.840;2023-11-19T04:09:18;100546.38;;;13.53;100.00
6020;BME280;3038;51.122;6.840;2023-11-19T04:11:43;100547.47;;;13.44;100.00
6020;BME280;3038;51.122;6.840;2023-11-19T04:14:12;100555.94;;;13.32;100.00
6020;BME280;3038;51.122;6.840;2023-11-19T04:16:38;100545.53;;;13.23;100.00
6020;BME280;3038;51.122;6.840;2023-11-19T04:19:03;100544.72;;;13.14;100.00
6020;BME280;3038;51.122;6.840;2023-11-19T04:21:29;100537.00;;;13.04;100.00
6020;BME280;3038;51.122;6.840;2023-11-19T04:23:54;100536.78;;;12.91;100.00
6020;BME280;3038;51.122;6.840;2023-11-19T04:26:19;100538.03;;;12.80;100.00
6020;BME280;3038;51.122;6.840;2023-11-19T04:28:45;100546.75;;;12.74;100.00
6020;BME280;3038;51.122;6.840;2023-11-19T04:31:10;100549.75;;;12.71;100.00
6020;BME280;3038;51.122;6.840;2023-11-19T04:33:35;100549.28;;;12.68;100.00
6020;BME280;3038;51.122;6.840;2023-11-19T04:36:01;100557.72;;;12.71;100.00
6020;BME280;3038;51.122;6.840;2023-11-19T04:38:29;100568.25;;;12.73;100.00
6020;BME280;3038;51.122;6.840;2023-11-19T04:40:55;100564.75;;;12.72;100.00
6020;BME280;3038;51.122;6.840;2023-11-19T04:43:22;100575.41;;;12.72;100.00
6020;BME280;3038;51.122;6.840;2023-11-19T04:45:47;100563.72;;;12.73;100.00
6020;BME280;3038;51.122;6.840;2023-11-19T04:48:13;100587.00;;;12.79;100.00
6020;BME280;3038;51.122;6.840;2023-11-19T04:50:38;100565.34;;;12.82;100.00
6020;BME280;3038;51.122;6.840;2023-11-19T04:53:05;100568.63;;;12.84;100.00
6020;BME280;3038;51.122;6.840;2023-11-19T04:55:31;100559.75;;;12.92;100.00
6020;BME280;3038;51.122;6.840;2023-11-19T04:57:56;100558.94;;;12.92;100.00
6020;BME280;3038;51.122;6.840;2023-11-19T05:00:22;100550.75;;;12.93;100.00
6020;BME280;3038;51.122;6.840;2023-11-19T05:02:47;100550.66;;;12.86;100.00
6020;BME280;3038;51.122;6.840;2023-11-19T05:05:12;100565.50;;;12.81;100.00
6020;BME280;3038;51.122;6.840;2023-11-19T05:07:38;100552.16;;;12.81;100.00
6020;BME280;3038;51.122;6.840;2023-11-19T05:10:04;100559.28;;;12.89;100.00
6020;BME280;3038;51.122;6.840;2023-11-19T05:12:33;100553.59;;;12.92;100.00
6020;BME280;3038;51.122;6.840;2023-11-19T05:14:59;100555.25;;;12.93;100.00
6020;BME280;3038;51.122;6.840;2023-11-19T05:17:25;100555.44;;;12.91;100.00
6020;BME280;3038;51.122;6.840;2023-11-19T05:19:50;100572.06;;;12.93;100.00
6020;BME280;3038;51.122;6.840;2023-11-19T05:22:16;100584.19;;;12.96;100.00
6020;BME280;3038;51.122;6.840;2023-11-19T05:24:42;100590.53;;;12.95;100.00
6020;BME280;3038;51.122;6.840;2023-11-19T05:27:07;100575.28;;;12.89;100.00
6020;BME280;3038;51.122;6.840;2023-11-19T05:29:33;100579.00;;;12.79;100.00
6020;BME280;3038;51.122;6.840;2023-11-19T05:31:59;100578.53;;;12.76;100.00
6020;BME280;3038;51.122;6.840;2023-11-19T05:34:24;100577.69;;;12.75;100.00
6020;BME280;3038;51.122;6.840;2023-11-19T05:36:50;100595.69;;;12.73;100.00
6020;BME280;3038;51.122;6.840;2023-11-19T05:39:16;100586.06;;;12.72;100.00
6020;BME280;3038;51.122;6.840;2023-11-19T05:41:42;100590.06;;;12.68;100.00
6020;BME280;3038;51.122;6.840;2023-11-19T05:44:09;100589.94;;;12.61;100.00
6020;BME280;3038;51.122;6.840;2023-11-19T05:46:35;100591.63;;;12.63;100.00
6020;BME280;3038;51.122;6.840;2023-11-19T05:49:05;100588.75;;;12.64;100.00
6020;BME280;3038;51.122;6.840;2023-11-19T05:51:37;100587.47;;;12.60;100.00
6020;BME280;3038;51.122;6.840;2023-11-19T05:54:04;100594.13;;;12.56;100.00
6020;BME280;3038;51.122;6.840;2023-11-19T05:56:32;100586.50;;;12.53;100.00
6020;BME280;3038;51.122;6.840;2023-11-19T05:58:57;100593.69;;;12.52;100.00
6020;BME280;3038;51.122;6.840;2023-11-19T06:01:25;100586.66;;;12.51;100.00
6020;BME280;3038;51.122;6.840;2023-11-19T06:03:50;100580.88;;;12.48;100.00
6020;BME280;3038;51.122;6.840;2023-11-19T06:06:15;100584.22;;;12.42;100.00
6020;BME280;3038;51.122;6.840;2023-11-19T06:08:41;100591.06;;;12.44;100.00
6020;BME280;3038;51.122;6.840;2023-11-19T06:11:07;100605.69;;;12.48;99.69
6020;BME280;3038;51.122;6.840;2023-11-19T06:13:32;100593.50;;;12.54;98.99
6020;BME280;3038;51.122;6.840;2023-11-19T06:15:57;100593.50;;;12.54;98.67
6020;BME280;3038;51.122;6.840;2023-11-19T06:18:23;100602.84;;;12.50;99.07
6020;BME280;3038;51.122;6.840;2023-11-19T06:20:48;100613.81;;;12.47;99.00
6020;BME280;3038;51.122;6.840;2023-11-19T06:23:15;100617.50;;;12.46;98.31
6020;BME280;3038;51.122;6.840;2023-11-19T06:25:40;100620.34;;;12.44;98.30
6020;BME280;3038;51.122;6.840;2023-11-19T06:28:05;100610.84;;;12.42;98.00
6020;BME280;3038;51.122;6.840;2023-11-19T06:30:31;100625.19;;;12.41;98.28
6020;BME280;3038;51.122;6.840;2023-11-19T06:32:58;100601.56;;;12.38;98.79
6020;BME280;3038;51.122;6.840;2023-11-19T06:35:23;100607.88;;;12.37;98.21
6020;BME280;3038;51.122;6.840;2023-11-19T06:37:49;100615.03;;;12.36;98.87
6020;BME280;3038;51.122;6.840;2023-11-19T06:40:14;100597.44;;;12.27;99.17
6020;BME280;3038;51.122;6.840;2023-11-19T06:42:40;100605.31;;;12.20;99.58
6020;BME280;3038;51.122;6.840;2023-11-19T06:45:06;100603.16;;;12.16;99.37
6020;BME280;3038;51.122;6.840;2023-11-19T06:47:31;100616.16;;;12.19;98.58
6020;BME280;3038;51.122;6.840;2023-11-19T06:49:58;100613.28;;;12.20;98.25
6020;BME280;3038;51.122;6.840;2023-11-19T06:52:23;100613.63;;;12.17;98.04
6020;BME280;3038;51.122;6.840;2023-11-19T06:54:49;100611.34;;;12.14;97.61
6020;BME280;3038;51.122;6.840;2023-11-19T06:57:16;100609.34;;;12.08;97.73
6020;BME280;3038;51.122;6.840;2023-11-19T06:59:42;100612.19;;;12.06;97.44
6020;BME280;3038;51.122;6.840;2023-11-19T07:02:07;100601.34;;;12.08;97.24
6020;BME280;3038;51.122;6.840;2023-11-19T07:04:34;100598.69;;;12.08;97.27
6020;BME280;3038;51.122;6.840;2023-11-19T07:07:01;100597.56;;;12.02;97.40
6020;BME280;3038;51.122;6.840;2023-11-19T07:09:27;100600.22;;;12.02;97.80
6020;BME280;3038;51.122;6.840;2023-11-19T07:11:52;100624.03;;;12.04;97.78
6020;BME280;3038;51.122;6.840;2023-11-19T07:14:19;100628.03;;;12.00;97.86
6020;BME280;3038;51.122;6.840;2023-11-19T07:16:47;100619.69;;;12.03;97.75
6020;BME280;3038;51.122;6.840;2023-11-19T07:19:12;100613.41;;;11.96;97.88
6020;BME280;3038;51.122;6.840;2023-11-19T07:21:41;100616.38;;;11.93;97.49
6020;BME280;3038;51.122;6.840;2023-11-19T07:24:11;100630.69;;;12.00;97.17
6020;BME280;3038;51.122;6.840;2023-11-19T07:26:42;100629.34;;;11.96;96.98
6020;BME280;3038;51.122;6.840;2023-11-19T07:29:08;100635.19;;;11.99;96.36
6020;BME280;3038;51.122;6.840;2023-11-19T07:31:34;100625.19;;;12.01;95.86
6020;BME280;3038;51.122;6.840;2023-11-19T07:33:59;100626.19;;;12.00;95.62
6020;BME280;3038;51.122;6.840;2023-11-19T07:36:27;100626.34;;;11.99;96.10
6020;BME280;3038;51.122;6.840;2023-11-19T07:38:52;100636.97;;;11.99;95.89
6020;BME280;3038;51.122;6.840;2023-11-19T07:41:18;100642.78;;;12.02;96.10
6020;BME280;3038;51.122;6.840;2023-11-19T07:43:45;100640.97;;;12.03;96.00
6020;BME280;3038;51.122;6.840;2023-11-19T07:46:12;100649.63;;;12.05;95.89
6020;BME280;3038;51.122;6.840;2023-11-19T07:48:41;100631.13;;;12.12;95.64
6020;BME280;3038;51.122;6.840;2023-11-19T07:51:07;100643.28;;;12.14;95.70
6020;BME280;3038;51.122;6.840;2023-11-19T07:53:33;100651.59;;;12.11;95.89
6020;BME280;3038;51.122;6.840;2023-11-19T07:55:58;100649.06;;;12.18;95.42
6020;BME280;3038;51.122;6.840;2023-11-19T07:58:27;100662.88;;;12.21;94.84
6020;BME280;3038;51.122;6.840;2023-11-19T08:00:52;100672.88;;;12.19;94.92
6020;BME280;3038;51.122;6.840;2023-11-19T08:03:17;100672.81;;;12.27;94.38
6020;BME280;3038;51.122;6.840;2023-11-19T08:05:46;100660.81;;;12.40;93.46
6020;BME280;3038;51.122;6.840;2023-11-19T08:08:12;100672.09;;;12.42;93.79
6020;BME280;3038;51.122;6.840;2023-11-19T08:10:37;100677.59;;;12.40;94.09
6020;BME280;3038;51.122;6.840;2023-11-19T08:13:08;100681.78;;;12.43;93.06
6020;BME280;3038;51.122;6.840;2023-11-19T08:15:36;100687.75;;;12.45;93.56
6020;BME280;3038;51.122;6.840;2023-11-19T08:18:01;100705.69;;;12.51;93.64
6020;BME280;3038;51.122;6.840;2023-11-19T08:20:27;100713.66;;;12.59;93.53
6020;BME280;3038;51.122;6.840;2023-11-19T08:22:52;100713.09;;;12.72;93.24
6020;BME280;3038;51.122;6.840;2023-11-19T08:25:18;100722.38;;;12.76;92.88
6020;BME280;3038;51.122;6.840;2023-11-19T08:27:43;100724.22;;;12.75;92.98
6020;BME280;3038;51.122;6.840;2023-11-19T08:30:09;100717.72;;;12.78;92.79
6020;BME280;3038;51.122;6.840;2023-11-19T08:32:36;100714.53;;;12.82;91.54
6020;BME280;3038;51.122;6.840;2023-11-19T08:35:02;100723.66;;;12.88;92.09
6020;BME280;3038;51.122;6.840;2023-11-19T08:37:27;100710.53;;;12.86;91.98
6020;BME280;3038;51.122;6.840;2023-11-19T08:39:55;100712.44;;;13.01;90.55
6020;BME280;3038;51.122;6.840;2023-11-19T08:42:21;100716.06;;;13.08;89.36
6020;BME280;3038;51.122;6.840;2023-11-19T08:44:49;100713.69;;;13.13;89.69
6020;BME280;3038;51.122;6.840;2023-11-19T08:47:16;100715.03;;;13.09;89.64
6020;BME280;3038;51.122;6.840;2023-11-19T08:49:45;100720.38;;;13.09;89.46
6020;BME280;3038;51.122;6.840;2023-11-19T08:52:10;100713.69;;;13.13;89.85
6020;BME280;3038;51.122;6.840;2023-11-19T08:54:36;100719.31;;;13.18;89.31
6020;BME280;3038;51.122;6.840;2023-11-19T08:57:02;100719.50;;;13.25;89.68
6020;BME280;3038;51.122;6.840;2023-11-19T08:59:28;100716.97;;;13.23;88.81
6020;BME280;3038;51.122;6.840;2023-11-19T09:01:54;100727.63;;;13.23;87.56
6020;BME280;3038;51.122;6.840;2023-11-19T09:04:19;100735.91;;;13.36;87.51
6020;BME280;3038;51.122;6.840;2023-11-19T09:06:47;100731.91;;;13.32;87.00
6020;BME280;3038;51.122;6.840;2023-11-19T09:09:12;100733.81;;;13.24;87.46
6020;BME280;3038;51.122;6.840;2023-11-19T09:11:38;100721.47;;;13.23;87.01
6020;BME280;3038;51.122;6.840;2023-11-19T09:14:03;100718.78;;;13.31;87.12
6020;BME280;3038;51.122;6.840;2023-11-19T09:16:29;100719.16;;;13.43;86.32
6020;BME280;3038;51.122;6.840;2023-11-19T09:18:54;100729.69;;;13.44;85.49
6020;BME280;3038;51.122;6.840;2023-11-19T09:21:20;100728.19;;;13.42;85.88
6020;BME280;3038;51.122;6.840;2023-11-19T09:23:45;100725.81;;;13.47;85.37
6020;BME280;3038;51.122;6.840;2023-11-19T09:26:13;100721.00;;;13.65;84.76
6020;BME280;3038;51.122;6.840;2023-11-19T09:28:38;100718.72;;;14.59;81.87
6020;BME280;3038;51.122;6.840;2023-11-19T09:31:13;100703.78;;;15.01;79.23
6020;BME280;3038;51.122;6.840;2023-11-19T09:33:38;100716.66;;;15.12;77.39
6020;BME280;3038;51.122;6.840;2023-11-19T09:36:04;100717.47;;;15.12;77.00
6020;BME280;3038;51.122;6.840;2023-11-19T09:38:29;100720.25;;;15.62;75.99
6020;BME280;3038;51.122;6.840;2023-11-19T09:40:55;100723.34;;;14.65;78.31
6020;BME280;3038;51.122;6.840;2023-11-19T09:43:20;100723.13;;;14.22;80.34
6020;BME280;3038;51.122;6.840;2023-11-19T09:45:50;100718.97;;;14.20;80.69
6020;BME280;3038;51.122;6.840;2023-11-19T09:48:18;100730.88;;;14.32;79.76
6020;BME280;3038;51.122;6.840;2023-11-19T09:50:47;100737.16;;;14.54;79.79
6020;BME280;3038;51.122;6.840;2023-11-19T09:53:13;100717.41;;;14.25;80.01
6020;BME280;3038;51.122;6.840;2023-11-19T09:55:40;100713.28;;;14.23;80.13
6020;BME280;3038;51.122;6.840;2023-11-19T09:58:07;100721.63;;;14.20;79.37
6020;BME280;3038;51.122;6.840;2023-11-19T10:00:33;100724.22;;;14.13;80.25
6020;BME280;3038;51.122;6.840;2023-11-19T10:02:59;100711.78;;;14.20;79.68
6020;BME280;3038;51.122;6.840;2023-11-19T10:05:25;100715.78;;;15.05;76.82
6020;BME280;3038;51.122;6.840;2023-11-19T10:07:51;100719.31;;;15.98;73.70
6020;BME280;3038;51.122;6.840;2023-11-19T10:10:17;100711.34;;;15.33;75.22
6020;BME280;3038;51.122;6.840;2023-11-19T10:12:45;100709.16;;;15.22;74.38
6020;BME280;3038;51.122;6.840;2023-11-19T10:15:20;100725.00;;;16.51;71.17
6020;BME280;3038;51.122;6.840;2023-11-19T10:17:46;100708.16;;;17.44;66.73
6020;BME280;3038;51.122;6.840;2023-11-19T10:20:11;100711.72;;;17.65;66.47
6020;BME280;3038;51.122;6.840;2023-11-19T10:22:37;100719.31;;;15.98;70.94
6020;BME280;3038;51.122;6.840;2023-11-19T10:25:03;100710.44;;;15.26;74.21
6020;BME280;3038;51.122;6.840;2023-11-19T10:27:29;100721.88;;;15.84;72.21
6020;BME280;3038;51.122;6.840;2023-11-19T10:29:59;100705.50;;;15.08;75.00
6020;BME280;3038;51.122;6.840;2023-11-19T10:32:24;100701.72;;;14.81;76.17
6020;BME280;3038;51.122;6.840;2023-11-19T10:34:52;100709.72;;;15.82;73.95
6020;BME280;3038;51.122;6.840;2023-11-19T10:37:27;100703.50;;;15.10;74.97
6020;BME280;3038;51.122;6.840;2023-11-19T10:39:55;100697.75;;;14.77;75.86
6020;BME280;3038;51.122;6.840;2023-11-19T10:42:20;100705.91;;;14.54;76.76
6020;BME280;3038;51.122;6.840;2023-11-19T10:44:46;100704.50;;;14.44;77.09
6020;BME280;3038;51.122;6.840;2023-11-19T10:47:13;100696.97;;;14.32;76.75
6020;BME280;3038;51.122;6.840;2023-11-19T10:49:39;100707.56;;;15.71;72.57
6020;BME280;3038;51.122;6.840;2023-11-19T10:52:10;100701.97;;;15.44;72.34
6020;BME280;3038;51.122;6.840;2023-11-19T10:54:40;100697.72;;;14.92;74.69
6020;BME280;3038;51.122;6.840;2023-11-19T10:57:17;100708.03;;;14.59;75.72
6020;BME280;3038;51.122;6.840;2023-11-19T10:59:45;100698.28;;;14.51;76.61
6020;BME280;3038;51.122;6.840;2023-11-19T11:02:16;100697.50;;;14.43;76.57
6020;BME280;3038;51.122;6.840;2023-11-19T11:04:45;100697.59;;;14.34;76.76
6020;BME280;3038;51.122;6.840;2023-11-19T11:07:14;100688.69;;;14.27;76.65
6020;BME280;3038;51.122;6.840;2023-11-19T11:09:41;100678.38;;;14.24;76.46
6020;BME280;3038;51.122;6.840;2023-11-19T11:12:10;100688.13;;;14.17;76.37
6020;BME280;3038;51.122;6.840;2023-11-19T11:14:37;100679.53;;;14.07;76.74
6020;BME280;3038;51.122;6.840;2023-11-19T11:17:03;100687.75;;;14.05;77.50
6020;BME280;3038;51.122;6.840;2023-11-19T11:19:33;100702.13;;;14.04;78.56
6020;BME280;3038;51.122;6.840;2023-11-19T11:21:59;100686.28;;;14.03;78.80
6020;BME280;3038;51.122;6.840;2023-11-19T11:30:34;100689.31;;;18.31;61.98
6020;BME280;3038;51.122;6.840;2023-11-19T11:32:35;100671.47;;;18.94;59.40
6020;BME280;3038;51.122;6.840;2023-11-19T11:38:01;100674.25;;;19.94;55.64
6020;BME280;3038;51.122;6.840;2023-11-19T11:40:28;100666.03;;;19.08;57.75
6020;BME280;3038;51.122;6.840;2023-11-19T11:42:53;100657.53;;;19.11;57.40
6020;BME280;3038;51.122;6.840;2023-11-19T11:45:19;100657.22;;;19.50;56.98
6020;BME280;3038;51.122;6.840;2023-11-19T11:48:06;100661.66;;;18.17;59.37
6020;BME280;3038;51.122;6.840;2023-11-19T11:50:35;100650.41;;;16.61;65.03
6020;BME280;3038;51.122;6.840;2023-11-19T11:58:31;100656.34;;;17.37;63.64
6020;BME280;3038;51.122;6.840;2023-11-19T12:01:01;100646.75;;;16.75;63.45
6020;BME280;3038;51.122;6.840;2023-11-19T12:03:31;100660.78;;;15.94;66.55
6020;BME280;3038;51.122;6.840;2023-11-19T12:05:57;100668.00;;;15.66;68.37
6020;BME280;3038;51.122;6.840;2023-11-19T12:08:26;100657.75;;;15.27;69.66
6020;BME280;3038;51.122;6.840;2023-11-19T12:10:54;100655.56;;;15.09;70.42
6020;BME280;3038;51.122;6.840;2023-11-19T12:13:23;100657.72;;;15.20;71.02
6020;BME280;3038;51.122;6.840;2023-11-19T12:18:24;100650.53;;;16.05;68.69
6020;BME280;3038;51.122;6.840;2023-11-19T12:20:51;100651.13;;;16.00;68.65
6020;BME280;3038;51.122;6.840;2023-11-19T12:23:17;100642.50;;;16.39;67.94
6020;BME280;3038;51.122;6.840;2023-11-19T12:25:44;100649.03;;;16.30;68.65
6020;BME280;3038;51.122;6.840;2023-11-19T12:28:13;100649.69;;;15.98;69.37
6020;BME280;3038;51.122;6.840;2023-11-19T12:30:41;100646.22;;;15.48;71.58
6020;BME280;3038;51.122;6.840;2023-11-19T12:33:10;100635.94;;;15.02;72.78
6020;BME280;3038;51.122;6.840;2023-11-19T12:38:05;100634.03;;;14.59;74.59
6020;BME280;3038;51.122;6.840;2023-11-19T12:40:31;100630.94;;;14.41;76.02
6020;BME280;3038;51.122;6.840;2023-11-19T12:42:56;100619.88;;;14.29;75.88
6020;BME280;3038;51.122;6.840;2023-11-19T12:45:23;100635.38;;;14.19;76.86
6020;BME280;3038;51.122;6.840;2023-11-19T12:48:09;100631.53;;;13.40;89.55
6020;BME280;3038;51.122;6.840;2023-11-19T12:50:55;100631.56;;;12.85;93.02
6020;BME280;3038;51.122;6.840;2023-11-19T12:53:22;100627.38;;;12.68;92.19
6020;BME280;3038;51.122;6.840;2023-11-19T12:55:48;100626.41;;;12.61;92.69
6020;BME280;3038;51.122;6.840;2023-11-19T12:58:30;100619.44;;;12.83;93.96
6020;BME280;3038;51.122;6.840;2023-11-19T13:01:03;100630.16;;;14.62;85.75
6020;BME280;3038;51.122;6.840;2023-11-19T13:03:30;100633.84;;;15.19;82.17
6020;BME280;3038;51.122;6.840;2023-11-19T13:06:01;100630.78;;;15.50;79.00
6020;BME280;3038;51.122;6.840;2023-11-19T13:08:28;100633.31;;;14.65;82.09
6020;BME280;3038;51.122;6.840;2023-11-19T13:10:55;100636.75;;;15.52;76.95
6020;BME280;3038;51.122;6.840;2023-11-19T13:13:22;100630.25;;;15.89;74.81
6020;BME280;3038;51.122;6.840;2023-11-19T13:15:48;100638.50;;;15.87;76.65
6020;BME280;3038;51.122;6.840;2023-11-19T13:18:16;100628.81;;;15.37;76.76
6020;BME280;3038;51.122;6.840;2023-11-19T13:20:41;100650.31;;;15.22;77.87
6020;BME280;3038;51.122;6.840;2023-11-19T13:23:07;100636.59;;;15.04;77.31